sensor_id;sensor_type;location;lat;lon;timestamp;P1;durP1;ratioP1;P2;durP2;ratioP2
8439;SDS011;4257;48.568;7.818;2022-08-19T00:00:37;4.32;;;2.33;;
8439;SDS011;4257;48.568;7.818;2022-08-19T00:03:24;5.00;;;2.70;;
8439;SDS011;4257;48.568;7.818;2022-08-19T00:06:11;3.95;;;2.58;;
8439;SDS011;4257;48.568;7.818;2022-08-19T00:08:58;3.53;;;2.60;;
8439;SDS011;4257;48.568;7.818;2022-08-19T00:11:45;3.97;;;2.53;;
8439;SDS011;4257;48.568;7.818;2022-08-19T00:14:34;5.20;;;2.70;;
8439;SDS011;4257;48.568;7.818;2022-08-19T00:17:21;3.75;;;2.38;;
8439;SDS011;4257;48.568;7.818;2022-08-19T00:20:08;4.18;;;2.83;;
8439;SDS011;4257;48.568;7.818;2022-08-19T00:22:55;5.05;;;2.88;;
8439;SDS011;4257;48.568;7.818;2022-08-19T00:25:42;5.75;;;2.60;;
8439;SDS011;4257;48.568;7.818;2022-08-19T00:28:29;5.13;;;2.97;;
8439;SDS011;4257;48.568;7.818;2022-08-19T00:31:17;2.90;;;2.05;;
8439;SDS011;4257;48.568;7.818;2022-08-19T00:34:04;3.97;;;2.50;;
8439;SDS011;4257;48.568;7.818;2022-08-19T00:36:51;3.83;;;2.40;;
8439;SDS011;4257;48.568;7.818;2022-08-19T00:39:38;5.68;;;3.00;;
8439;SDS011;4257;48.568;7.818;2022-08-19T00:42:25;5.45;;;2.90;;
8439;SDS011;4257;48.568;7.818;2022-08-19T00:45:15;4.68;;;2.10;;
8439;SDS011;4257;48.568;7.818;2022-08-19T00:48:06;7.20;;;2.90;;
8439;SDS011;4257;48.568;7.818;2022-08-19T00:50:53;4.13;;;2.90;;
8439;SDS011;4257;48.568;7.818;2022-08-19T00:53:40;7.25;;;2.83;;
8439;SDS011;4257;48.568;7.818;2022-08-19T00:56:27;4.78;;;2.80;;
8439;SDS011;4257;48.568;7.818;2022-08-19T00:59:16;6.25;;;3.00;;
8439;SDS011;4257;48.568;7.818;2022-08-19T01:02:03;4.63;;;3.17;;
8439;SDS011;4257;48.568;7.818;2022-08-19T01:04:52;4.10;;;3.35;;
8439;SDS011;4257;48.568;7.818;2022-08-19T01:07:39;4.60;;;2.65;;
8439;SDS011;4257;48.568;7.818;2022-08-19T01:10:27;5.40;;;2.85;;
8439;SDS011;4257;48.568;7.818;2022-08-19T01:13:16;4.78;;;2.33;;
8439;SDS011;4257;48.568;7.818;2022-08-19T01:16:05;5.90;;;3.40;;
8439;SDS011;4257;48.568;7.818;2022-08-19T01:18:54;6.03;;;3.22;;
8439;SDS011;4257;48.568;7.818;2022-08-19T01:21:43;5.82;;;3.15;;
8439;SDS011;4257;48.568;7.818;2022-08-19T01:24:34;3.38;;;2.65;;
8439;SDS011;4257;48.568;7.818;2022-08-19T01:27:21;5.18;;;3.70;;
8439;SDS011;4257;48.568;7.818;2022-08-19T01:30:08;5.60;;;2.63;;
8439;SDS011;4257;48.568;7.818;2022-08-19T01:32:57;7.63;;;2.92;;
8439;SDS011;4257;48.568;7.818;2022-08-19T01:35:45;3.83;;;2.70;;
8439;SDS011;4257;48.568;7.818;2022-08-19T01:38:39;5.00;;;2.13;;
8439;SDS011;4257;48.568;7.818;2022-08-19T01:41:28;4.82;;;3.20;;
8439;SDS011;4257;48.568;7.818;2022-08-19T01:44:15;3.55;;;2.67;;
8439;SDS011;4257;48.568;7.818;2022-08-19T01:47:05;4.18;;;2.45;;
8439;SDS011;4257;48.568;7.818;2022-08-19T01:49:52;4.13;;;2.88;;
8439;SDS011;4257;48.568;7.818;2022-08-19T01:52:40;5.63;;;3.03;;
8439;SDS011;4257;48.568;7.818;2022-08-19T01:55:27;4.88;;;2.53;;
8439;SDS011;4257;48.568;7.818;2022-08-19T01:58:17;3.92;;;2.60;;
8439;SDS011;4257;48.568;7.818;2022-08-19T02:01:06;3.53;;;2.78;;
8439;SDS011;4257;48.568;7.818;2022-08-19T02:03:53;5.90;;;3.22;;
8439;SDS011;4257;48.568;7.818;2022-08-19T02:06:40;3.80;;;2.42;;
8439;SDS011;4257;48.568;7.818;2022-08-19T02:09:27;3.72;;;2.67;;
8439;SDS011;4257;48.568;7.818;2022-08-19T02:12:14;3.03;;;1.98;;
8439;SDS011;4257;48.568;7.818;2022-08-19T02:15:03;5.85;;;2.45;;
8439;SDS011;4257;48.568;7.818;2022-08-19T02:17:51;3.63;;;2.03;;
8439;SDS011;4257;48.568;7.818;2022-08-19T02:20:38;4.60;;;2.80;;
8439;SDS011;4257;48.568;7.818;2022-08-19T02:23:26;3.90;;;2.80;;
8439;SDS011;4257;48.568;7.818;2022-08-19T02:26:13;3.97;;;2.50;;
8439;SDS011;4257;48.568;7.818;2022-08-19T02:29:00;6.63;;;2.83;;
8439;SDS011;4257;48.568;7.818;2022-08-19T02:31:48;4.80;;;2.75;;
8439;SDS011;4257;48.568;7.818;2022-08-19T02:34:35;5.30;;;2.97;;
8439;SDS011;4257;48.568;7.818;2022-08-19T02:37:23;5.45;;;2.45;;
8439;SDS011;4257;48.568;7.818;2022-08-19T02:40:28;6.15;;;2.83;;
8439;SDS011;4257;48.568;7.818;2022-08-19T02:43:15;3.00;;;2.42;;
8439;SDS011;4257;48.568;7.818;2022-08-19T02:46:02;4.78;;;2.30;;
8439;SDS011;4257;48.568;7.818;2022-08-19T02:48:59;3.28;;;2.13;;
8439;SDS011;4257;48.568;7.818;2022-08-19T02:51:47;2.85;;;1.98;;
8439;SDS011;4257;48.568;7.818;2022-08-19T02:54:34;4.20;;;2.85;;
8439;SDS011;4257;48.568;7.818;2022-08-19T02:57:21;3.30;;;2.28;;
8439;SDS011;4257;48.568;7.818;2022-08-19T03:00:08;4.80;;;2.90;;
8439;SDS011;4257;48.568;7.818;2022-08-19T03:02:57;4.40;;;2.33;;
8439;SDS011;4257;48.568;7.818;2022-08-19T03:05:47;3.20;;;2.15;;
8439;SDS011;4257;48.568;7.818;2022-08-19T03:08:33;5.25;;;2.90;;
8439;SDS011;4257;48.568;7.818;2022-08-19T03:11:21;3.25;;;1.98;;
8439;SDS011;4257;48.568;7.818;2022-08-19T03:14:09;5.95;;;2.17;;
8439;SDS011;4257;48.568;7.818;2022-08-19T03:16:56;4.75;;;2.28;;
8439;SDS011;4257;48.568;7.818;2022-08-19T03:19:43;2.97;;;2.50;;
8439;SDS011;4257;48.568;7.818;2022-08-19T03:22:31;6.15;;;2.13;;
8439;SDS011;4257;48.568;7.818;2022-08-19T03:25:18;3.90;;;2.17;;
8439;SDS011;4257;48.568;7.818;2022-08-19T03:28:05;4.38;;;2.20;;
8439;SDS011;4257;48.568;7.818;2022-08-19T03:30:56;4.93;;;2.47;;
8439;SDS011;4257;48.568;7.818;2022-08-19T03:33:45;3.33;;;2.17;;
8439;SDS011;4257;48.568;7.818;2022-08-19T03:36:32;4.22;;;2.10;;
8439;SDS011;4257;48.568;7.818;2022-08-19T03:39:20;3.97;;;2.10;;
8439;SDS011;4257;48.568;7.818;2022-08-19T03:42:08;4.72;;;2.50;;
8439;SDS011;4257;48.568;7.818;2022-08-19T03:44:55;3.92;;;2.67;;
8439;SDS011;4257;48.568;7.818;2022-08-19T03:47:43;3.95;;;2.63;;
8439;SDS011;4257;48.568;7.818;2022-08-19T03:50:30;3.50;;;2.35;;
8439;SDS011;4257;48.568;7.818;2022-08-19T03:53:17;4.03;;;2.78;;
8439;SDS011;4257;48.568;7.818;2022-08-19T03:56:05;5.47;;;3.17;;
8439;SDS011;4257;48.568;7.818;2022-08-19T03:58:55;6.45;;;3.47;;
8439;SDS011;4257;48.568;7.818;2022-08-19T04:01:42;3.67;;;2.65;;
8439;SDS011;4257;48.568;7.818;2022-08-19T04:04:29;5.80;;;3.25;;
8439;SDS011;4257;48.568;7.818;2022-08-19T04:07:16;3.78;;;3.17;;
8439;SDS011;4257;48.568;7.818;2022-08-19T04:10:03;4.38;;;3.08;;
8439;SDS011;4257;48.568;7.818;2022-08-19T04:12:52;5.07;;;2.97;;
8439;SDS011;4257;48.568;7.818;2022-08-19T04:15:39;3.25;;;2.50;;
8439;SDS011;4257;48.568;7.818;2022-08-19T04:18:26;4.63;;;3.17;;
8439;SDS011;4257;48.568;7.818;2022-08-19T04:21:16;3.75;;;2.85;;
8439;SDS011;4257;48.568;7.818;2022-08-19T04:24:05;4.32;;;2.53;;
8439;SDS011;4257;48.568;7.818;2022-08-19T04:26:53;5.05;;;2.80;;
8439;SDS011;4257;48.568;7.818;2022-08-19T04:29:41;6.03;;;2.65;;
8439;SDS011;4257;48.568;7.818;2022-08-19T04:32:28;5.10;;;3.25;;
8439;SDS011;4257;48.568;7.818;2022-08-19T04:35:17;4.65;;;3.05;;
8439;SDS011;4257;48.568;7.818;2022-08-19T04:38:04;4.97;;;2.65;;
8439;SDS011;4257;48.568;7.818;2022-08-19T04:40:51;7.03;;;3.38;;
8439;SDS011;4257;48.568;7.818;2022-08-19T04:43:55;4.72;;;3.22;;
8439;SDS011;4257;48.568;7.818;2022-08-19T04:46:43;6.82;;;3.38;;
8439;SDS011;4257;48.568;7.818;2022-08-19T04:49:30;6.20;;;2.80;;
8439;SDS011;4257;48.568;7.818;2022-08-19T04:52:17;6.05;;;2.58;;
8439;SDS011;4257;48.568;7.818;2022-08-19T04:55:04;6.78;;;3.92;;
8439;SDS011;4257;48.568;7.818;2022-08-19T04:57:51;5.55;;;3.92;;
8439;SDS011;4257;48.568;7.818;2022-08-19T05:00:38;6.57;;;4.13;;
8439;SDS011;4257;48.568;7.818;2022-08-19T05:03:27;5.07;;;2.75;;
8439;SDS011;4257;48.568;7.818;2022-08-19T05:06:19;7.03;;;4.03;;
8439;SDS011;4257;48.568;7.818;2022-08-19T05:09:07;11.00;;;4.43;;
8439;SDS011;4257;48.568;7.818;2022-08-19T05:11:53;6.18;;;3.92;;
8439;SDS011;4257;48.568;7.818;2022-08-19T05:14:40;11.85;;;3.35;;
8439;SDS011;4257;48.568;7.818;2022-08-19T05:17:27;8.05;;;4.25;;
8439;SDS011;4257;48.568;7.818;2022-08-19T05:20:15;5.00;;;3.15;;
8439;SDS011;4257;48.568;7.818;2022-08-19T05:23:20;5.28;;;3.15;;
8439;SDS011;4257;48.568;7.818;2022-08-19T05:26:07;6.25;;;3.92;;
8439;SDS011;4257;48.568;7.818;2022-08-19T05:28:55;7.30;;;3.85;;
8439;SDS011;4257;48.568;7.818;2022-08-19T05:31:42;5.93;;;3.53;;
8439;SDS011;4257;48.568;7.818;2022-08-19T05:34:30;5.72;;;3.80;;
8439;SDS011;4257;48.568;7.818;2022-08-19T05:37:19;6.72;;;4.03;;
8439;SDS011;4257;48.568;7.818;2022-08-19T05:40:07;6.93;;;4.45;;
8439;SDS011;4257;48.568;7.818;2022-08-19T05:42:54;6.13;;;3.28;;
8439;SDS011;4257;48.568;7.818;2022-08-19T05:45:42;5.57;;;3.75;;
8439;SDS011;4257;48.568;7.818;2022-08-19T05:48:29;6.70;;;3.92;;
8439;SDS011;4257;48.568;7.818;2022-08-19T05:51:16;6.22;;;3.42;;
8439;SDS011;4257;48.568;7.818;2022-08-19T05:54:05;5.30;;;3.53;;
8439;SDS011;4257;48.568;7.818;2022-08-19T05:56:52;8.63;;;4.03;;
8439;SDS011;4257;48.568;7.818;2022-08-19T05:59:39;8.80;;;3.53;;
8439;SDS011;4257;48.568;7.818;2022-08-19T06:02:27;7.90;;;4.45;;
8439;SDS011;4257;48.568;7.818;2022-08-19T06:05:15;6.32;;;3.65;;
8439;SDS011;4257;48.568;7.818;2022-08-19T06:08:03;5.57;;;3.60;;
8439;SDS011;4257;48.568;7.818;2022-08-19T06:10:52;4.70;;;3.58;;
8439;SDS011;4257;48.568;7.818;2022-08-19T06:13:39;8.00;;;3.22;;
8439;SDS011;4257;48.568;7.818;2022-08-19T06:16:25;6.53;;;3.92;;
8439;SDS011;4257;48.568;7.818;2022-08-19T06:19:13;6.07;;;3.60;;
8439;SDS011;4257;48.568;7.818;2022-08-19T06:22:01;6.68;;;4.03;;
8439;SDS011;4257;48.568;7.818;2022-08-19T06:24:49;5.78;;;3.53;;
8439;SDS011;4257;48.568;7.818;2022-08-19T06:27:39;5.65;;;3.75;;
8439;SDS011;4257;48.568;7.818;2022-08-19T06:30:26;6.57;;;3.97;;
8439;SDS011;4257;48.568;7.818;2022-08-19T06:33:13;6.03;;;3.22;;
8439;SDS011;4257;48.568;7.818;2022-08-19T06:36:00;5.28;;;3.53;;
8439;SDS011;4257;48.568;7.818;2022-08-19T06:38:47;4.05;;;3.05;;
8439;SDS011;4257;48.568;7.818;2022-08-19T06:41:34;4.35;;;2.92;;
8439;SDS011;4257;48.568;7.818;2022-08-19T06:44:23;14.60;;;3.92;;
8439;SDS011;4257;48.568;7.818;2022-08-19T06:47:12;6.78;;;3.30;;
8439;SDS011;4257;48.568;7.818;2022-08-19T06:50:00;5.72;;;3.10;;
8439;SDS011;4257;48.568;7.818;2022-08-19T06:52:48;4.53;;;2.92;;
8439;SDS011;4257;48.568;7.818;2022-08-19T06:55:35;4.88;;;3.17;;
8439;SDS011;4257;48.568;7.818;2022-08-19T06:58:22;4.82;;;2.95;;
8439;SDS011;4257;48.568;7.818;2022-08-19T07:01:11;5.28;;;3.25;;
8439;SDS011;4257;48.568;7.818;2022-08-19T07:03:57;7.57;;;3.70;;
8439;SDS011;4257;48.568;7.818;2022-08-19T07:06:46;6.32;;;3.30;;
8439;SDS011;4257;48.568;7.818;2022-08-19T07:09:34;7.10;;;3.05;;
8439;SDS011;4257;48.568;7.818;2022-08-19T07:12:22;5.05;;;3.00;;
8439;SDS011;4257;48.568;7.818;2022-08-19T07:15:09;5.25;;;3.28;;
8439;SDS011;4257;48.568;7.818;2022-08-19T07:17:58;4.35;;;2.83;;
8439;SDS011;4257;48.568;7.818;2022-08-19T07:20:44;5.20;;;3.30;;
8439;SDS011;4257;48.568;7.818;2022-08-19T07:23:31;5.93;;;4.22;;
8439;SDS011;4257;48.568;7.818;2022-08-19T07:26:19;6.57;;;4.03;;
8439;SDS011;4257;48.568;7.818;2022-08-19T07:29:07;4.93;;;3.50;;
8439;SDS011;4257;48.568;7.818;2022-08-19T07:31:54;6.80;;;3.83;;
8439;SDS011;4257;48.568;7.818;2022-08-19T07:34:45;8.82;;;3.45;;
8439;SDS011;4257;48.568;7.818;2022-08-19T07:37:31;5.20;;;3.15;;
8439;SDS011;4257;48.568;7.818;2022-08-19T07:40:20;5.32;;;2.85;;
8439;SDS011;4257;48.568;7.818;2022-08-19T07:43:07;7.13;;;4.15;;
8439;SDS011;4257;48.568;7.818;2022-08-19T07:45:54;9.88;;;3.42;;
8439;SDS011;4257;48.568;7.818;2022-08-19T07:48:43;5.40;;;2.60;;
8439;SDS011;4257;48.568;7.818;2022-08-19T07:51:32;3.53;;;2.78;;
8439;SDS011;4257;48.568;7.818;2022-08-19T07:54:20;11.82;;;3.53;;
8439;SDS011;4257;48.568;7.818;2022-08-19T07:57:07;5.70;;;3.47;;
8439;SDS011;4257;48.568;7.818;2022-08-19T07:59:54;4.90;;;3.28;;
8439;SDS011;4257;48.568;7.818;2022-08-19T08:02:41;4.32;;;2.95;;
8439;SDS011;4257;48.568;7.818;2022-08-19T08:05:28;4.90;;;3.45;;
8439;SDS011;4257;48.568;7.818;2022-08-19T08:08:34;4.10;;;2.45;;
8439;SDS011;4257;48.568;7.818;2022-08-19T08:11:38;4.35;;;3.03;;
8439;SDS011;4257;48.568;7.818;2022-08-19T08:14:28;4.05;;;2.72;;
8439;SDS011;4257;48.568;7.818;2022-08-19T08:17:19;6.53;;;3.50;;
8439;SDS011;4257;48.568;7.818;2022-08-19T08:20:07;5.32;;;3.58;;
8439;SDS011;4257;48.568;7.818;2022-08-19T08:22:54;5.65;;;4.13;;
8439;SDS011;4257;48.568;7.818;2022-08-19T08:26:00;4.32;;;3.05;;
8439;SDS011;4257;48.568;7.818;2022-08-19T08:28:47;4.13;;;2.65;;
8439;SDS011;4257;48.568;7.818;2022-08-19T08:31:34;4.78;;;2.75;;
8439;SDS011;4257;48.568;7.818;2022-08-19T08:34:22;4.63;;;2.97;;
8439;SDS011;4257;48.568;7.818;2022-08-19T08:37:09;3.38;;;2.70;;
8439;SDS011;4257;48.568;7.818;2022-08-19T08:39:56;5.35;;;3.65;;
8439;SDS011;4257;48.568;7.818;2022-08-19T08:42:45;4.93;;;3.17;;
8439;SDS011;4257;48.568;7.818;2022-08-19T08:45:38;5.97;;;3.17;;
8439;SDS011;4257;48.568;7.818;2022-08-19T08:48:32;6.90;;;3.67;;
8439;SDS011;4257;48.568;7.818;2022-08-19T08:51:24;4.22;;;2.88;;
8439;SDS011;4257;48.568;7.818;2022-08-19T08:54:15;5.05;;;2.97;;
8439;SDS011;4257;48.568;7.818;2022-08-19T08:57:07;3.80;;;2.80;;
8439;SDS011;4257;48.568;7.818;2022-08-19T08:59:59;3.55;;;2.45;;
8439;SDS011;4257;48.568;7.818;2022-08-19T09:02:50;6.95;;;3.60;;
8439;SDS011;4257;48.568;7.818;2022-08-19T09:05:39;5.20;;;3.35;;
8439;SDS011;4257;48.568;7.818;2022-08-19T09:08:36;10.45;;;2.90;;
8439;SDS011;4257;48.568;7.818;2022-08-19T09:11:30;3.95;;;2.80;;
8439;SDS011;4257;48.568;7.818;2022-08-19T09:14:32;5.32;;;3.13;;
8439;SDS011;4257;48.568;7.818;2022-08-19T09:17:24;4.97;;;2.58;;
8439;SDS011;4257;48.568;7.818;2022-08-19T09:20:18;4.40;;;2.70;;
8439;SDS011;4257;48.568;7.818;2022-08-19T09:23:06;3.55;;;3.00;;
8439;SDS011;4257;48.568;7.818;2022-08-19T09:25:53;6.15;;;3.10;;
8439;SDS011;4257;48.568;7.818;2022-08-19T09:28:40;4.70;;;2.17;;
8439;SDS011;4257;48.568;7.818;2022-08-19T09:31:28;4.40;;;2.55;;
8439;SDS011;4257;48.568;7.818;2022-08-19T09:34:17;5.97;;;2.33;;
8439;SDS011;4257;48.568;7.818;2022-08-19T09:37:05;3.85;;;2.78;;
8439;SDS011;4257;48.568;7.818;2022-08-19T09:39:51;6.57;;;2.67;;
8439;SDS011;4257;48.568;7.818;2022-08-19T09:42:38;3.80;;;2.42;;
8439;SDS011;4257;48.568;7.818;2022-08-19T09:45:28;4.03;;;2.25;;
8439;SDS011;4257;48.568;7.818;2022-08-19T09:48:15;3.90;;;2.38;;
8439;SDS011;4257;48.568;7.818;2022-08-19T09:51:05;3.17;;;2.30;;
8439;SDS011;4257;48.568;7.818;2022-08-19T09:53:53;5.10;;;2.50;;
8439;SDS011;4257;48.568;7.818;2022-08-19T09:56:40;4.00;;;2.00;;
8439;SDS011;4257;48.568;7.818;2022-08-19T09:59:28;5.40;;;3.28;;
8439;SDS011;4257;48.568;7.818;2022-08-19T10:02:15;7.60;;;3.28;;
8439;SDS011;4257;48.568;7.818;2022-08-19T10:05:02;5.07;;;2.88;;
8439;SDS011;4257;48.568;7.818;2022-08-19T10:08:07;4.07;;;2.25;;
8439;SDS011;4257;48.568;7.818;2022-08-19T10:10:55;4.80;;;2.80;;
8439;SDS011;4257;48.568;7.818;2022-08-19T10:13:42;3.63;;;2.22;;
8439;SDS011;4257;48.568;7.818;2022-08-19T10:16:30;3.35;;;1.80;;
8439;SDS011;4257;48.568;7.818;2022-08-19T10:19:17;3.78;;;2.05;;
8439;SDS011;4257;48.568;7.818;2022-08-19T10:22:05;6.50;;;2.35;;
8439;SDS011;4257;48.568;7.818;2022-08-19T10:24:54;10.45;;;2.35;;
8439;SDS011;4257;48.568;7.818;2022-08-19T10:27:41;3.78;;;2.88;;
8439;SDS011;4257;48.568;7.818;2022-08-19T10:30:28;3.55;;;2.30;;
8439;SDS011;4257;48.568;7.818;2022-08-19T10:33:15;3.72;;;2.60;;
8439;SDS011;4257;48.568;7.818;2022-08-19T10:36:03;6.60;;;3.50;;
8439;SDS011;4257;48.568;7.818;2022-08-19T10:38:51;5.65;;;3.35;;
8439;SDS011;4257;48.568;7.818;2022-08-19T10:41:41;4.95;;;2.85;;
8439;SDS011;4257;48.568;7.818;2022-08-19T10:44:29;5.75;;;2.85;;
8439;SDS011;4257;48.568;7.818;2022-08-19T10:47:15;4.45;;;2.40;;
8439;SDS011;4257;48.568;7.818;2022-08-19T10:50:02;4.13;;;2.83;;
8439;SDS011;4257;48.568;7.818;2022-08-19T10:53:08;5.68;;;2.97;;
8439;SDS011;4257;48.568;7.818;2022-08-19T10:55:54;6.50;;;2.85;;
8439;SDS011;4257;48.568;7.818;2022-08-19T10:59:00;4.30;;;2.78;;
8439;SDS011;4257;48.568;7.818;2022-08-19T11:01:49;4.38;;;2.38;;
8439;SDS011;4257;48.568;7.818;2022-08-19T11:04:36;4.18;;;2.72;;
8439;SDS011;4257;48.568;7.818;2022-08-19T11:07:23;3.75;;;2.40;;
8439;SDS011;4257;48.568;7.818;2022-08-19T11:10:12;7.07;;;2.80;;
8439;SDS011;4257;48.568;7.818;2022-08-19T11:13:04;4.20;;;2.53;;
8439;SDS011;4257;48.568;7.818;2022-08-19T11:15:59;5.10;;;2.70;;
8439;SDS011;4257;48.568;7.818;2022-08-19T11:18:47;3.40;;;2.30;;
8439;SDS011;4257;48.568;7.818;2022-08-19T11:21:36;5.15;;;3.38;;
8439;SDS011;4257;48.568;7.818;2022-08-19T11:24:24;3.10;;;1.98;;
8439;SDS011;4257;48.568;7.818;2022-08-19T11:27:12;5.07;;;3.30;;
8439;SDS011;4257;48.568;7.818;2022-08-19T11:29:59;3.47;;;2.38;;
8439;SDS011;4257;48.568;7.818;2022-08-19T11:32:50;7.28;;;3.05;;
8439;SDS011;4257;48.568;7.818;2022-08-19T11:35:38;4.50;;;2.85;;
8439;SDS011;4257;48.568;7.818;2022-08-19T11:38:25;4.38;;;3.15;;
8439;SDS011;4257;48.568;7.818;2022-08-19T11:41:12;4.00;;;2.67;;
8439;SDS011;4257;48.568;7.818;2022-08-19T11:43:59;3.50;;;2.55;;
8439;SDS011;4257;48.568;7.818;2022-08-19T11:46:48;16.85;;;3.20;;
8439;SDS011;4257;48.568;7.818;2022-08-19T11:49:36;2.30;;;2.00;;
8439;SDS011;4257;48.568;7.818;2022-08-19T11:52:23;5.68;;;3.10;;
8439;SDS011;4257;48.568;7.818;2022-08-19T11:55:10;2.60;;;1.83;;
8439;SDS011;4257;48.568;7.818;2022-08-19T11:57:58;2.00;;;1.80;;
8439;SDS011;4257;48.568;7.818;2022-08-19T12:00:45;2.80;;;2.00;;
8439;SDS011;4257;48.568;7.818;2022-08-19T12:03:31;3.13;;;1.70;;
8439;SDS011;4257;48.568;7.818;2022-08-19T12:06:20;2.25;;;1.77;;
8439;SDS011;4257;48.568;7.818;2022-08-19T12:09:13;2.03;;;1.65;;
8439;SDS011;4257;48.568;7.818;2022-08-19T12:12:01;3.42;;;1.90;;
8439;SDS011;4257;48.568;7.818;2022-08-19T12:14:48;1.88;;;1.60;;
8439;SDS011;4257;48.568;7.818;2022-08-19T12:17:36;2.10;;;1.70;;
8439;SDS011;4257;48.568;7.818;2022-08-19T12:20:23;1.85;;;1.70;;
8439;SDS011;4257;48.568;7.818;2022-08-19T12:23:12;1.50;;;1.40;;
8439;SDS011;4257;48.568;7.818;2022-08-19T12:25:59;2.08;;;1.50;;
8439;SDS011;4257;48.568;7.818;2022-08-19T12:28:46;1.95;;;1.33;;
8439;SDS011;4257;48.568;7.818;2022-08-19T12:31:33;2.08;;;1.88;;
8439;SDS011;4257;48.568;7.818;2022-08-19T12:34:20;1.90;;;1.70;;
8439;SDS011;4257;48.568;7.818;2022-08-19T12:37:07;1.95;;;1.40;;
8439;SDS011;4257;48.568;7.818;2022-08-19T12:39:55;1.58;;;1.48;;
8439;SDS011;4257;48.568;7.818;2022-08-19T12:42:42;2.50;;;1.83;;
8439;SDS011;4257;48.568;7.818;2022-08-19T12:45:29;1.88;;;1.45;;
8439;SDS011;4257;48.568;7.818;2022-08-19T12:48:16;2.58;;;1.63;;
8439;SDS011;4257;48.568;7.818;2022-08-19T12:51:05;2.03;;;1.67;;
8439;SDS011;4257;48.568;7.818;2022-08-19T12:53:52;2.00;;;1.63;;
8439;SDS011;4257;48.568;7.818;2022-08-19T12:56:40;2.50;;;1.80;;
8439;SDS011;4257;48.568;7.818;2022-08-19T12:59:30;2.33;;;1.80;;
8439;SDS011;4257;48.568;7.818;2022-08-19T13:02:16;2.28;;;1.50;;
8439;SDS011;4257;48.568;7.818;2022-08-19T13:05:03;2.03;;;1.40;;
8439;SDS011;4257;48.568;7.818;2022-08-19T13:07:52;1.70;;;1.50;;
8439;SDS011;4257;48.568;7.818;2022-08-19T13:10:41;2.53;;;1.50;;
8439;SDS011;4257;48.568;7.818;2022-08-19T13:13:29;4.38;;;2.05;;
8439;SDS011;4257;48.568;7.818;2022-08-19T13:16:16;2.33;;;1.52;;
8439;SDS011;4257;48.568;7.818;2022-08-19T13:19:03;2.15;;;1.42;;
8439;SDS011;4257;48.568;7.818;2022-08-19T13:21:50;2.40;;;1.40;;
8439;SDS011;4257;48.568;7.818;2022-08-19T13:24:39;2.33;;;1.30;;
8439;SDS011;4257;48.568;7.818;2022-08-19T13:27:26;1.77;;;1.50;;
8439;SDS011;4257;48.568;7.818;2022-08-19T13:30:14;2.10;;;1.33;;
8439;SDS011;4257;48.568;7.818;2022-08-19T13:33:20;1.63;;;1.50;;
8439;SDS011;4257;48.568;7.818;2022-08-19T13:36:07;2.08;;;1.40;;
8439;SDS011;4257;48.568;7.818;2022-08-19T13:38:54;2.08;;;1.33;;
8439;SDS011;4257;48.568;7.818;2022-08-19T13:41:43;1.40;;;1.30;;
8439;SDS011;4257;48.568;7.818;2022-08-19T13:44:33;2.40;;;1.40;;
8439;SDS011;4257;48.568;7.818;2022-08-19T13:47:21;3.20;;;1.98;;
8439;SDS011;4257;48.568;7.818;2022-08-19T13:50:08;1.25;;;1.13;;
8439;SDS011;4257;48.568;7.818;2022-08-19T13:52:56;1.98;;;1.45;;
8439;SDS011;4257;48.568;7.818;2022-08-19T13:55:42;3.17;;;2.00;;
8439;SDS011;4257;48.568;7.818;2022-08-19T13:58:30;2.97;;;1.55;;
8439;SDS011;4257;48.568;7.818;2022-08-19T14:01:18;1.95;;;1.30;;
8439;SDS011;4257;48.568;7.818;2022-08-19T14:04:08;3.00;;;1.42;;
8439;SDS011;4257;48.568;7.818;2022-08-19T14:06:55;3.45;;;0.98;;
8439;SDS011;4257;48.568;7.818;2022-08-19T14:09:41;2.33;;;1.25;;
8439;SDS011;4257;48.568;7.818;2022-08-19T14:12:28;1.77;;;1.20;;
8439;SDS011;4257;48.568;7.818;2022-08-19T14:15:17;1.70;;;1.60;;
8439;SDS011;4257;48.568;7.818;2022-08-19T14:18:04;2.90;;;1.40;;
8439;SDS011;4257;48.568;7.818;2022-08-19T14:20:52;1.42;;;1.15;;
8439;SDS011;4257;48.568;7.818;2022-08-19T14:23:39;1.90;;;1.35;;
8439;SDS011;4257;48.568;7.818;2022-08-19T14:26:25;1.63;;;1.13;;
8439;SDS011;4257;48.568;7.818;2022-08-19T14:29:12;5.32;;;1.90;;
8439;SDS011;4257;48.568;7.818;2022-08-19T14:31:59;2.70;;;1.70;;
8439;SDS011;4257;48.568;7.818;2022-08-19T14:34:46;2.25;;;1.30;;
8439;SDS011;4257;48.568;7.818;2022-08-19T14:37:34;3.72;;;1.70;;
8439;SDS011;4257;48.568;7.818;2022-08-19T14:40:23;1.75;;;1.20;;
8439;SDS011;4257;48.568;7.818;2022-08-19T14:43:11;1.90;;;1.52;;
8439;SDS011;4257;48.568;7.818;2022-08-19T14:45:58;3.72;;;1.52;;
8439;SDS011;4257;48.568;7.818;2022-08-19T14:48:45;2.15;;;1.58;;
8439;SDS011;4257;48.568;7.818;2022-08-19T14:51:32;2.45;;;1.58;;
8439;SDS011;4257;48.568;7.818;2022-08-19T14:54:20;2.33;;;1.67;;
8439;SDS011;4257;48.568;7.818;2022-08-19T14:57:07;1.80;;;1.30;;
8439;SDS011;4257;48.568;7.818;2022-08-19T14:59:58;2.47;;;1.50;;
8439;SDS011;4257;48.568;7.818;2022-08-19T15:02:45;3.95;;;1.70;;
8439;SDS011;4257;48.568;7.818;2022-08-19T15:05:32;1.88;;;1.63;;
8439;SDS011;4257;48.568;7.818;2022-08-19T15:08:18;1.52;;;1.40;;
8439;SDS011;4257;48.568;7.818;2022-08-19T15:11:12;24.42;;;3.10;;
8439;SDS011;4257;48.568;7.818;2022-08-19T15:14:01;3.78;;;1.50;;
8439;SDS011;4257;48.568;7.818;2022-08-19T15:16:48;2.80;;;1.70;;
8439;SDS011;4257;48.568;7.818;2022-08-19T15:19:34;2.13;;;1.60;;
8439;SDS011;4257;48.568;7.818;2022-08-19T15:22:21;3.53;;;1.95;;
8439;SDS011;4257;48.568;7.818;2022-08-19T15:25:09;3.28;;;2.30;;
8439;SDS011;4257;48.568;7.818;2022-08-19T15:27:59;8.45;;;1.95;;
8439;SDS011;4257;48.568;7.818;2022-08-19T15:30:46;2.05;;;1.85;;
8439;SDS011;4257;48.568;7.818;2022-08-19T15:33:33;2.38;;;1.60;;
8439;SDS011;4257;48.568;7.818;2022-08-19T15:36:21;2.53;;;1.77;;
8439;SDS011;4257;48.568;7.818;2022-08-19T15:39:08;4.40;;;1.90;;
8439;SDS011;4257;48.568;7.818;2022-08-19T15:41:55;8.98;;;3.05;;
8439;SDS011;4257;48.568;7.818;2022-08-19T15:44:44;2.08;;;1.63;;
8439;SDS011;4257;48.568;7.818;2022-08-19T15:47:31;4.32;;;1.98;;
8439;SDS011;4257;48.568;7.818;2022-08-19T15:50:18;4.20;;;1.70;;
8439;SDS011;4257;48.568;7.818;2022-08-19T15:53:06;2.30;;;1.40;;
8439;SDS011;4257;48.568;7.818;2022-08-19T15:55:54;2.33;;;1.40;;
8439;SDS011;4257;48.568;7.818;2022-08-19T15:58:41;4.85;;;2.72;;
8439;SDS011;4257;48.568;7.818;2022-08-19T16:01:47;3.95;;;1.65;;
8439;SDS011;4257;48.568;7.818;2022-08-19T16:04:51;2.38;;;1.80;;
8439;SDS011;4257;48.568;7.818;2022-08-19T16:07:56;1.60;;;1.20;;
8439;SDS011;4257;48.568;7.818;2022-08-19T16:10:43;1.77;;;1.30;;
8439;SDS011;4257;48.568;7.818;2022-08-19T16:13:29;1.50;;;1.30;;
8439;SDS011;4257;48.568;7.818;2022-08-19T16:16:17;2.28;;;1.60;;
8439;SDS011;4257;48.568;7.818;2022-08-19T16:19:06;1.42;;;1.13;;
8439;SDS011;4257;48.568;7.818;2022-08-19T16:21:54;3.10;;;0.95;;
8439;SDS011;4257;48.568;7.818;2022-08-19T16:24:41;1.20;;;1.10;;
8439;SDS011;4257;48.568;7.818;2022-08-19T16:27:28;1.05;;;0.95;;
8439;SDS011;4257;48.568;7.818;2022-08-19T16:30:16;1.55;;;1.10;;
8439;SDS011;4257;48.568;7.818;2022-08-19T16:33:03;1.58;;;1.00;;
8439;SDS011;4257;48.568;7.818;2022-08-19T16:35:51;1.38;;;0.82;;
8439;SDS011;4257;48.568;7.818;2022-08-19T16:38:38;1.10;;;0.90;;
8439;SDS011;4257;48.568;7.818;2022-08-19T16:41:24;0.95;;;0.80;;
8439;SDS011;4257;48.568;7.818;2022-08-19T16:44:12;0.85;;;0.70;;
8439;SDS011;4257;48.568;7.818;2022-08-19T16:47:00;1.23;;;1.00;;
8439;SDS011;4257;48.568;7.818;2022-08-19T16:49:46;3.15;;;0.98;;
8439;SDS011;4257;48.568;7.818;2022-08-19T16:52:34;0.70;;;0.65;;
8439;SDS011;4257;48.568;7.818;2022-08-19T16:55:21;1.10;;;0.90;;
8439;SDS011;4257;48.568;7.818;2022-08-19T16:58:08;1.30;;;0.82;;
8439;SDS011;4257;48.568;7.818;2022-08-19T17:00:55;1.13;;;1.02;;
8439;SDS011;4257;48.568;7.818;2022-08-19T17:03:43;1.85;;;0.75;;
8439;SDS011;4257;48.568;7.818;2022-08-19T17:06:30;0.60;;;0.50;;
8439;SDS011;4257;48.568;7.818;2022-08-19T17:09:19;0.70;;;0.70;;
8439;SDS011;4257;48.568;7.818;2022-08-19T17:12:06;1.48;;;0.60;;
8439;SDS011;4257;48.568;7.818;2022-08-19T17:14:53;0.65;;;0.52;;
8439;SDS011;4257;48.568;7.818;2022-08-19T17:17:40;1.20;;;0.50;;
8439;SDS011;4257;48.568;7.818;2022-08-19T17:20:27;1.20;;;1.05;;
8439;SDS011;4257;48.568;7.818;2022-08-19T17:23:14;0.60;;;0.60;;
8439;SDS011;4257;48.568;7.818;2022-08-19T17:26:02;1.38;;;0.70;;